Time;durP1;ratioP1;P1;durP2;ratioP2;P2;SDS_P1;SDS_P2;PMS_P1;PMS_P2;Temp;Humidity;BMP_temperature;BMP_pressure;BME280_temperature;BME280_humidity;BME280_pressure;Samples;Min_cycle;Max_cycle;Signal;HPM_P1;HPM_P2
2022/12/01 00:01:20;;;;;;;11.68;10.48;;;19.40;99.90;;;;;;4227968;28;20218;-75
2022/12/01 00:03:23;;;;;;;12.20;10.82;;;19.40;99.90;;;;;;4228894;28;20287;-75
2022/12/01 00:05:25;;;;;;;11.65;10.25;;;19.40;99.90;;;;;;4225202;28;20267;-75
2022/12/01 00:07:28;;;;;;;11.95;10.25;;;19.50;99.90;;;;;;4227965;28;20252;-75
2022/12/01 00:11:50;;;;;;;11.73;10.52;;;19.40;99.90;;;;;;4227575;28;20202;-75
2022/12/01 00:13:53;;;;;;;11.75;10.52;;;19.40;99.90;;;;;;4226045;28;20287;-75
2022/12/01 00:15:56;;;;;;;10.15;9.05;;;19.40;99.90;;;;;;4228143;28;20217;-75
2022/12/01 00:17:59;;;;;;;12.20;10.60;;;19.40;99.90;;;;;;4227953;28;20229;-75
2022/12/01 00:20:01;;;;;;;11.40;10.20;;;19.40;99.90;;;;;;4224560;28;20230;-75
2022/12/01 00:22:03;;;;;;;10.55;9.45;;;19.40;99.90;;;;;;4228041;28;20290;-75
2022/12/01 00:24:07;;;;;;;11.00;9.55;;;19.40;99.90;;;;;;4225167;28;20222;-75
2022/12/01 00:26:10;;;;;;;11.50;9.57;;;19.40;99.90;;;;;;4227454;28;20283;-75
2022/12/01 00:28:12;;;;;;;11.02;9.85;;;19.40;99.90;;;;;;4228219;28;20689;-75
2022/12/01 00:30:17;;;;;;;10.73;9.63;;;19.40;99.90;;;;;;4227156;28;20206;-75
2022/12/01 00:32:19;;;;;;;12.90;10.20;;;19.40;99.90;;;;;;4226484;28;20723;-75
2022/12/01 00:34:23;;;;;;;10.82;9.68;;;19.40;99.90;;;;;;4227938;28;20221;-75
2022/12/01 00:36:25;;;;;;;12.30;10.15;;;19.40;99.90;;;;;;4226161;28;20222;-74
2022/12/01 00:38:28;;;;;;;11.27;9.77;;;19.40;99.90;;;;;;4227606;28;20330;-75
2022/12/01 00:40:30;;;;;;;11.88;10.00;;;19.40;99.90;;;;;;4225149;28;20242;-75
2022/12/01 00:42:32;;;;;;;11.27;9.65;;;19.30;99.90;;;;;;4228120;28;20846;-75
2022/12/01 00:44:35;;;;;;;10.23;9.23;;;19.30;99.90;;;;;;4227066;28;20331;-75
2022/12/01 00:46:39;;;;;;;9.93;8.93;;;19.30;99.90;;;;;;4227785;28;20206;-75
2022/12/01 00:48:41;;;;;;;10.02;8.82;;;19.30;99.90;;;;;;4227486;28;20213;-75
2022/12/01 00:50:44;;;;;;;10.48;9.40;;;19.30;99.90;;;;;;4226391;28;20247;-75
2022/12/01 00:52:46;;;;;;;10.13;9.02;;;19.30;99.90;;;;;;4227385;28;20267;-75
2022/12/01 00:54:48;;;;;;;10.73;9.60;;;19.30;99.90;;;;;;4225142;28;20259;-75
2022/12/01 00:56:50;;;;;;;10.20;9.20;;;19.30;99.90;;;;;;4223281;28;20214;-75
2022/12/01 00:58:53;;;;;;;10.35;9.25;;;19.30;99.90;;;;;;4226751;28;20218;-74
2022/12/01 01:00:59;;;;;;;10.73;9.63;;;19.30;99.90;;;;;;4227344;28;20620;-75
2022/12/01 01:03:03;;;;;;;11.32;9.52;;;19.30;99.90;;;;;;4227955;28;20275;-75
2022/12/01 01:05:06;;;;;;;10.57;9.40;;;19.30;99.90;;;;;;4224738;28;20236;-74
2022/12/01 01:07:08;;;;;;;11.27;9.70;;;19.30;99.90;;;;;;4223623;28;20207;-75
2022/12/01 01:09:12;;;;;;;10.50;9.40;;;19.30;99.90;;;;;;4226226;28;20213;-75
2022/12/01 01:11:14;;;;;;;9.80;8.80;;;19.30;99.90;;;;;;4227005;28;20209;-75
2022/12/01 01:13:16;;;;;;;10.40;9.18;;;19.30;99.90;;;;;;4226452;28;20213;-75
2022/12/01 01:15:19;;;;;;;11.65;9.30;;;19.30;99.90;;;;;;4225175;28;20209;-75
2022/12/01 01:17:22;;;;;;;10.45;9.35;;;19.30;99.90;;;;;;4224937;28;20218;-75
2022/12/01 01:19:25;;;;;;;10.70;9.60;;;19.30;99.90;;;;;;4226551;28;20236;-74
2022/12/01 01:21:28;;;;;;;9.50;8.60;;;19.30;99.90;;;;;;4226626;28;20242;-75
2022/12/01 01:23:30;;;;;;;11.23;9.32;;;19.30;99.90;;;;;;4222958;28;20258;-75
2022/12/01 01:25:33;;;;;;;11.07;9.85;;;19.30;99.90;;;;;;4224240;28;20279;-74
2022/12/01 01:27:35;;;;;;;10.02;8.98;;;19.30;99.90;;;;;;4219709;28;20217;-75
2022/12/01 01:29:38;;;;;;;9.65;8.65;;;19.30;99.90;;;;;;4222335;28;20264;-75
2022/12/01 01:31:40;;;;;;;9.85;8.85;;;19.30;99.90;;;;;;4220444;28;20214;-75
2022/12/01 01:33:43;;;;;;;9.32;8.43;;;19.30;99.90;;;;;;4220123;28;20409;-75
2022/12/01 01:35:46;;;;;;;10.13;8.48;;;19.20;99.90;;;;;;4219631;28;20268;-75
2022/12/01 01:37:50;;;;;;;9.70;8.70;;;19.30;99.90;;;;;;4221239;28;20264;-75
2022/12/01 01:39:53;;;;;;;10.15;8.60;;;19.30;99.90;;;;;;4223909;28;20286;-75
2022/12/01 01:41:55;;;;;;;10.30;9.20;;;19.20;99.90;;;;;;4221485;28;20222;-75
2022/12/01 01:44:00;;;;;;;10.00;8.48;;;19.30;99.90;;;;;;4225004;28;20292;-75
2022/12/01 01:46:03;;;;;;;9.50;8.48;;;19.20;99.90;;;;;;4225453;28;20229;-75
2022/12/01 01:48:06;;;;;;;9.48;8.50;;;19.20;99.90;;;;;;4225587;28;20670;-75
2022/12/01 01:50:12;;;;;;;9.98;8.75;;;19.20;99.90;;;;;;4223786;28;20266;-75
2022/12/01 01:52:17;;;;;;;9.80;8.80;;;19.20;99.90;;;;;;4221393;28;20217;-74
2022/12/01 01:54:22;;;;;;;10.00;8.48;;;19.20;99.90;;;;;;4226098;28;20263;-75
2022/12/01 01:56:24;;;;;;;9.25;8.25;;;19.20;99.90;;;;;;4220881;28;20788;-75
2022/12/01 01:58:27;;;;;;;9.55;8.55;;;19.20;99.90;;;;;;4222385;28;20215;-75
2022/12/01 02:00:29;;;;;;;10.85;9.05;;;19.20;99.90;;;;;;4223670;28;20298;-75
2022/12/01 02:02:32;;;;;;;10.05;8.63;;;19.20;99.90;;;;;;4218605;28;20214;-75
2022/12/01 02:04:37;;;;;;;9.82;8.63;;;19.20;99.90;;;;;;4223045;28;20214;-75
2022/12/01 02:06:40;;;;;;;9.45;8.52;;;19.20;99.90;;;;;;4222780;28;20210;-75
2022/12/01 02:08:43;;;;;;;9.25;8.25;;;19.20;99.90;;;;;;4222019;28;20218;-75
2022/12/01 02:11:04;;;;;;;9.23;8.27;;;19.10;99.90;;;;;;4221113;28;20255;-75
2022/12/01 02:13:15;;;;;;;8.63;7.72;;;19.10;99.90;;;;;;4226262;28;20218;-74
2022/12/01 02:15:28;;;;;;;9.55;8.55;;;19.10;99.90;;;;;;4229900;27;20723;-74
2022/12/01 02:17:37;;;;;;;8.70;7.82;;;19.10;99.90;;;;;;4227386;28;20311;-75
2022/12/01 02:19:56;;;;;;;9.32;8.43;;;19.10;99.90;;;;;;4227959;28;20542;-75
2022/12/01 02:22:11;;;;;;;9.13;8.23;;;19.10;99.90;;;;;;4227135;27;20366;-75
2022/12/01 02:24:49;;;;;;;9.25;8.35;;;19.10;99.90;;;;;;4228315;28;20282;-75
2022/12/01 02:27:00;;;;;;;9.65;8.48;;;19.10;99.90;;;;;;4211822;28;20202;-75
2022/12/01 02:29:35;;;;;;;9.88;8.77;;;19.10;99.90;;;;;;4230323;28;20619;-75
2022/12/01 02:31:43;;;;;;;9.73;8.75;;;19.10;99.90;;;;;;4227531;28;20267;-75
2022/12/01 02:33:53;;;;;;;9.10;8.23;;;19.10;99.90;;;;;;4230343;28;20634;-75
2022/12/01 02:36:03;;;;;;;9.25;7.88;;;19.10;99.90;;;;;;4222390;28;20218;-75
2022/12/01 02:38:13;;;;;;;9.40;8.45;;;19.10;99.90;;;;;;4226150;28;20267;-75
2022/12/01 02:40:21;;;;;;;9.60;8.57;;;19.10;99.90;;;;;;4227595;28;20275;-75
2022/12/01 02:42:52;;;;;;;9.43;8.43;;;19.10;99.90;;;;;;4227788;28;20295;-75
2022/12/01 02:44:57;;;;;;;9.20;8.18;;;19.10;99.90;;;;;;4228247;28;20271;-75
2022/12/01 02:47:04;;;;;;;9.88;8.82;;;19.10;99.90;;;;;;4228821;28;20239;-76
2022/12/01 02:49:11;;;;;;;9.15;8.25;;;19.10;99.90;;;;;;4230237;28;20274;-75
2022/12/01 02:51:18;;;;;;;9.57;8.57;;;19.10;99.90;;;;;;4227712;28;20213;-75
2022/12/01 02:53:21;;;;;;;8.82;7.93;;;19.00;99.90;;;;;;4228357;28;20209;-75
2022/12/01 02:55:23;;;;;;;9.60;8.70;;;19.10;99.90;;;;;;4229463;28;20218;-75
2022/12/01 02:57:26;;;;;;;9.50;8.50;;;19.00;99.90;;;;;;4227949;28;20221;-75
2022/12/01 02:59:28;;;;;;;10.00;9.00;;;19.00;99.90;;;;;;4228455;28;20210;-75
2022/12/01 03:01:49;;;;;;;9.25;8.30;;;19.10;99.90;;;;;;4229254;28;20758;-75
2022/12/01 03:04:15;;;;;;;9.30;8.30;;;19.00;99.90;;;;;;4226918;28;20558;-76
2022/12/01 03:06:27;;;;;;;8.88;7.97;;;19.00;99.90;;;;;;4228550;28;20270;-75
2022/12/01 03:08:35;;;;;;;9.75;8.75;;;19.00;99.90;;;;;;4227318;28;20231;-75
2022/12/01 03:10:47;;;;;;;10.02;8.90;;;19.00;99.90;;;;;;4227778;28;20666;-76
2022/12/01 03:13:01;;;;;;;9.43;8.43;;;19.00;99.90;;;;;;4226980;28;20723;-75
2022/12/01 03:15:09;;;;;;;9.55;8.55;;;19.00;99.90;;;;;;4226531;28;20263;-75
2022/12/01 03:17:16;;;;;;;9.23;8.32;;;19.00;99.90;;;;;;4226880;28;20957;-75
2022/12/01 03:19:29;;;;;;;9.18;8.20;;;19.00;99.90;;;;;;4225088;28;20214;-75
2022/12/01 03:21:35;;;;;;;9.43;8.43;;;19.00;99.90;;;;;;4230409;27;20233;-75
2022/12/01 03:23:40;;;;;;;9.68;8.68;;;19.00;99.90;;;;;;4237864;27;20217;-75
2022/12/01 03:25:48;;;;;;;9.75;8.70;;;19.00;99.90;;;;;;4241179;27;20716;-75
2022/12/01 03:27:55;;;;;;;10.18;9.10;;;19.00;99.90;;;;;;4238123;27;20222;-75
2022/12/01 03:30:01;;;;;;;10.27;9.15;;;19.00;99.90;;;;;;4238036;27;20714;-75
2022/12/01 03:32:08;;;;;;;9.05;8.15;;;18.90;99.90;;;;;;4238088;27;20715;-75
2022/12/01 03:34:16;;;;;;;9.70;8.70;;;19.00;99.90;;;;;;4236737;27;20228;-75
2022/12/01 03:36:24;;;;;;;9.55;8.57;;;18.90;99.90;;;;;;4240241;27;20229;-75
2022/12/01 03:38:29;;;;;;;9.80;8.57;;;18.90;99.90;;;;;;4234647;27;20225;-75
2022/12/01 03:40:35;;;;;;;10.07;8.70;;;18.90;99.90;;;;;;4238083;27;20205;-74
2022/12/01 03:42:42;;;;;;;11.43;9.15;;;18.90;99.90;;;;;;4240414;27;20241;-75
2022/12/01 03:44:47;;;;;;;9.20;8.32;;;18.90;99.90;;;;;;4240263;27;20262;-75
2022/12/01 03:46:54;;;;;;;9.90;8.90;;;18.90;99.90;;;;;;4237310;27;20270;-75
2022/12/01 03:48:56;;;;;;;10.68;9.57;;;18.90;99.90;;;;;;4239306;27;20258;-75
2022/12/01 03:51:05;;;;;;;9.95;8.95;;;18.90;99.90;;;;;;4235247;27;20214;-75
2022/12/01 03:53:18;;;;;;;9.63;8.68;;;18.90;99.90;;;;;;4238152;27;20729;-75
2022/12/01 03:55:24;;;;;;;9.93;8.90;;;18.90;99.90;;;;;;4240005;27;20224;-75
2022/12/01 03:57:33;;;;;;;9.75;8.75;;;18.90;99.90;;;;;;4238027;27;20217;-75
2022/12/01 03:59:38;;;;;;;11.73;8.95;;;18.90;99.90;;;;;;4236183;27;20220;-75
2022/12/01 04:01:41;;;;;;;10.45;9.38;;;18.90;99.90;;;;;;4239663;27;20237;-75
2022/12/01 04:03:46;;;;;;;10.02;9.02;;;18.90;99.90;;;;;;4239134;27;20209;-75
2022/12/01 04:05:48;;;;;;;10.82;8.93;;;18.90;99.90;;;;;;4238474;27;20220;-75
2022/12/01 04:07:51;;;;;;;10.40;9.30;;;18.90;99.90;;;;;;4235809;27;20222;-75
2022/12/01 04:09:55;;;;;;;9.85;8.95;;;18.90;99.90;;;;;;4238097;27;20269;-76
2022/12/01 04:14:17;;;;;;;10.15;9.13;;;18.90;99.90;;;;;;4236301;27;20198;-75
2022/12/01 04:16:19;;;;;;;9.85;8.85;;;18.90;99.90;;;;;;4236399;27;20221;-75
2022/12/01 04:18:22;;;;;;;8.93;8.13;;;18.90;99.90;;;;;;4240942;27;20216;-75
2022/12/01 04:20:24;;;;;;;10.60;9.48;;;18.90;99.90;;;;;;4238138;27;20274;-75
2022/12/01 04:22:27;;;;;;;10.00;9.00;;;18.90;99.90;;;;;;4238242;27;20242;-75
2022/12/01 04:24:29;;;;;;;11.13;9.98;;;18.80;99.90;;;;;;4240389;27;20644;-75
2022/12/01 04:26:35;;;;;;;10.35;9.35;;;18.80;99.90;;;;;;4234576;27;20270;-76
2022/12/01 04:28:38;;;;;;;9.68;8.77;;;18.80;99.90;;;;;;4237771;27;20217;-75
2022/12/01 04:30:40;;;;;;;10.05;9.00;;;18.80;99.90;;;;;;4240081;27;20218;-75
2022/12/01 04:32:43;;;;;;;10.52;9.43;;;18.80;99.90;;;;;;4238784;27;20305;-75
2022/12/01 04:34:45;;;;;;;10.07;9.07;;;18.80;99.90;;;;;;4240680;27;20569;-75
2022/12/01 04:36:48;;;;;;;10.65;9.57;;;18.80;99.90;;;;;;4235632;27;20269;-75
2022/12/01 04:38:50;;;;;;;11.13;9.32;;;18.80;99.90;;;;;;4239678;27;20258;-75
2022/12/01 04:40:53;;;;;;;9.43;8.52;;;18.80;99.90;;;;;;4239371;27;20282;-75
2022/12/01 04:42:57;;;;;;;11.07;9.30;;;18.80;99.90;;;;;;4235990;27;20237;-75
2022/12/01 04:44:59;;;;;;;10.05;9.05;;;18.80;99.90;;;;;;4238272;27;20208;-75
2022/12/01 04:47:01;;;;;;;11.23;9.57;;;18.80;99.90;;;;;;4235060;27;20270;-75
2022/12/01 04:49:04;;;;;;;10.98;9.88;;;18.80;99.90;;;;;;4237266;27;20650;-75
2022/12/01 04:51:08;;;;;;;10.18;9.18;;;18.80;99.90;;;;;;4237330;27;20210;-75
2022/12/01 04:53:11;;;;;;;11.15;10.05;;;18.80;99.90;;;;;;4236808;27;20255;-75
2022/12/01 04:55:14;;;;;;;10.82;9.82;;;18.80;99.90;;;;;;4235049;27;20221;-75
2022/12/01 04:57:16;;;;;;;10.57;9.45;;;18.80;99.90;;;;;;4238329;27;20271;-75
2022/12/01 04:59:20;;;;;;;9.98;8.98;;;18.80;99.90;;;;;;4236691;27;20628;-75
2022/12/01 05:01:22;;;;;;;10.57;9.48;;;18.70;99.90;;;;;;4241749;27;20258;-75
2022/12/01 05:03:25;;;;;;;10.45;9.35;;;18.80;99.90;;;;;;4236848;27;20281;-75
2022/12/01 05:05:27;;;;;;;10.40;8.85;;;18.80;99.90;;;;;;4235795;27;20627;-75
2022/12/01 05:07:29;;;;;;;10.93;9.82;;;18.70;99.90;;;;;;4240583;27;20261;-75
2022/12/01 05:09:32;;;;;;;9.40;8.50;;;18.80;99.90;;;;;;4240098;27;20669;-75
2022/12/01 05:11:34;;;;;;;9.77;8.75;;;18.70;99.90;;;;;;4238167;27;20266;-75
2022/12/01 05:13:38;;;;;;;10.75;9.65;;;18.70;99.90;;;;;;4238090;27;20213;-75
2022/12/01 05:15:42;;;;;;;9.70;8.70;;;18.70;99.90;;;;;;4238280;27;20213;-75
2022/12/01 05:17:44;;;;;;;9.88;8.88;;;18.80;99.90;;;;;;4238311;27;20672;-75
2022/12/01 05:22:06;;;;;;;10.30;9.30;;;18.70;99.90;;;;;;4238127;27;20232;-75
2022/12/01 05:24:11;;;;;;;9.68;8.68;;;18.70;99.90;;;;;;4235212;28;20217;-75
2022/12/01 05:26:13;;;;;;;9.40;8.50;;;18.70;99.90;;;;;;4236375;27;20213;-75
2022/12/01 05:28:15;;;;;;;10.20;9.20;;;18.70;99.90;;;;;;4235967;27;20229;-75
2022/12/01 05:30:18;;;;;;;10.10;9.10;;;18.70;99.90;;;;;;4240721;27;20615;-75
2022/12/01 05:32:21;;;;;;;10.98;9.77;;;18.70;99.90;;;;;;4234416;27;20674;-75
2022/12/01 05:34:23;;;;;;;10.25;9.25;;;18.70;99.90;;;;;;4238435;27;20225;-75
2022/12/01 05:36:26;;;;;;;9.65;8.73;;;18.70;99.90;;;;;;4240862;27;20229;-75
2022/12/01 05:38:28;;;;;;;9.30;8.27;;;18.70;99.90;;;;;;4239616;27;20229;-75
2022/12/01 05:40:31;;;;;;;10.40;8.88;;;18.70;99.90;;;;;;4239599;27;20208;-75
2022/12/01 05:42:33;;;;;;;10.52;9.38;;;18.70;99.90;;;;;;4238825;27;20294;-75
2022/12/01 05:44:35;;;;;;;10.35;9.25;;;18.60;99.90;;;;;;4241358;27;20620;-76
2022/12/01 05:46:38;;;;;;;10.18;9.18;;;18.70;99.90;;;;;;4238699;27;20209;-76
2022/12/01 05:48:42;;;;;;;10.23;9.05;;;18.70;99.90;;;;;;4239227;27;20259;-75
2022/12/01 05:50:44;;;;;;;11.70;9.25;;;18.70;99.90;;;;;;4237718;27;20251;-75
2022/12/01 05:52:47;;;;;;;10.13;9.13;;;18.70;99.90;;;;;;4242214;27;20217;-75
2022/12/01 05:54:49;;;;;;;10.27;9.23;;;18.60;99.90;;;;;;4241451;27;20201;-75
2022/12/01 05:56:51;;;;;;;11.05;9.95;;;18.60;99.90;;;;;;4238319;27;20258;-75
2022/12/01 05:58:54;;;;;;;9.98;8.98;;;18.60;99.90;;;;;;4239969;27;20266;-75
2022/12/01 06:00:56;;;;;;;10.85;9.38;;;18.60;99.90;;;;;;4244519;27;20217;-75
2022/12/01 06:02:58;;;;;;;12.10;9.48;;;18.60;99.90;;;;;;4240257;27;20229;-75
2022/12/01 06:05:02;;;;;;;9.80;8.65;;;18.70;99.90;;;;;;4241005;27;20228;-75
2022/12/01 06:07:04;;;;;;;10.43;9.27;;;18.70;99.90;;;;;;4241610;27;20266;-75
2022/12/01 06:09:08;;;;;;;10.80;9.40;;;18.70;99.90;;;;;;4238944;27;20267;-75
2022/12/01 06:11:10;;;;;;;10.00;8.93;;;18.70;99.90;;;;;;4243366;27;20241;-75
2022/12/01 06:13:13;;;;;;;10.05;9.05;;;18.70;99.90;;;;;;4237522;27;20213;-75
2022/12/01 06:15:15;;;;;;;11.18;9.30;;;18.70;99.90;;;;;;4239524;27;20269;-75
2022/12/01 06:17:17;;;;;;;8.95;8.05;;;18.70;99.90;;;;;;4237153;27;20266;-75
2022/12/01 06:19:20;;;;;;;9.88;8.88;;;18.80;99.90;;;;;;4239032;27;20229;-75
2022/12/01 06:21:23;;;;;;;8.93;8.05;;;18.80;99.90;;;;;;4238601;27;20244;-75
2022/12/01 06:23:26;;;;;;;9.77;8.80;;;18.80;99.90;;;;;;4245892;27;20229;-75
2022/12/01 06:25:28;;;;;;;10.30;8.88;;;18.80;99.90;;;;;;4246769;27;20221;-75
2022/12/01 06:27:31;;;;;;;10.43;9.32;;;18.80;99.90;;;;;;4245503;27;20267;-75
2022/12/01 06:29:33;;;;;;;10.15;8.52;;;18.80;99.90;;;;;;4240695;27;20222;-75
2022/12/01 06:31:35;;;;;;;10.13;9.13;;;18.80;99.90;;;;;;4245330;27;20710;-75
2022/12/01 06:33:37;;;;;;;10.88;8.82;;;18.80;99.90;;;;;;4245937;27;20266;-75
2022/12/01 06:35:40;;;;;;;9.75;8.75;;;18.80;99.90;;;;;;4241670;27;20266;-75
2022/12/01 06:37:43;;;;;;;9.43;8.43;;;18.80;99.90;;;;;;4241812;27;20209;-75
2022/12/01 06:39:46;;;;;;;8.63;7.72;;;18.90;99.90;;;;;;4243148;27;20217;-75
2022/12/01 06:41:48;;;;;;;9.75;8.77;;;18.90;99.90;;;;;;4243183;27;20266;-75
2022/12/01 06:43:50;;;;;;;9.57;8.50;;;18.90;99.90;;;;;;4245950;27;20246;-74
2022/12/01 06:45:53;;;;;;;9.95;8.95;;;18.90;99.90;;;;;;4245838;27;20212;-75
2022/12/01 06:47:56;;;;;;;10.55;8.45;;;18.90;99.90;;;;;;4246121;27;20217;-74
2022/12/01 06:49:58;;;;;;;9.50;8.23;;;18.90;99.90;;;;;;4243029;27;20217;-75
2022/12/01 06:52:00;;;;;;;9.00;7.95;;;18.90;99.90;;;;;;4242663;27;20220;-75
2022/12/01 06:54:04;;;;;;;8.77;7.88;;;18.90;99.90;;;;;;4246618;27;20710;-75
2022/12/01 06:56:07;;;;;;;10.32;8.90;;;19.00;99.90;;;;;;4239772;27;20270;-75
2022/12/01 06:58:09;;;;;;;8.90;8.00;;;19.00;99.90;;;;;;4246062;27;20329;-75
2022/12/01 07:00:13;;;;;;;10.60;8.65;;;19.10;99.90;;;;;;4244464;27;20224;-75
2022/12/01 07:02:15;;;;;;;10.93;8.48;;;19.10;99.90;;;;;;4241810;27;20927;-75
2022/12/01 07:04:18;;;;;;;9.48;8.48;;;19.10;99.90;;;;;;4246546;27;20289;-75
2022/12/01 07:06:20;;;;;;;11.02;8.90;;;19.10;99.90;;;;;;4242607;27;20614;-75
2022/12/01 07:08:22;;;;;;;9.68;8.57;;;19.10;99.90;;;;;;4244222;27;20285;-75
2022/12/01 07:10:26;;;;;;;8.63;7.82;;;19.10;99.90;;;;;;4245373;27;20273;-75
2022/12/01 07:12:30;;;;;;;9.60;8.23;;;19.10;99.90;;;;;;4245037;27;20225;-74
2022/12/01 07:14:32;;;;;;;9.75;8.20;;;19.10;99.90;;;;;;4245851;27;20558;-75
2022/12/01 07:16:35;;;;;;;9.55;8.40;;;19.20;99.90;;;;;;4245037;27;21601;-75
2022/12/01 07:18:39;;;;;;;9.07;8.07;;;19.20;99.90;;;;;;4244321;27;20209;-75
2022/12/01 07:20:41;;;;;;;9.07;8.15;;;19.20;99.90;;;;;;4245480;27;20661;-75
2022/12/01 07:22:43;;;;;;;10.52;8.00;;;19.20;99.90;;;;;;4235468;27;20626;-75
2022/12/01 07:24:46;;;;;;;10.50;8.63;;;19.20;99.90;;;;;;4233872;27;20283;-75
2022/12/01 07:26:49;;;;;;;10.13;8.82;;;19.20;99.90;;;;;;4233059;27;20213;-75
2022/12/01 07:28:53;;;;;;;9.95;8.93;;;19.30;99.90;;;;;;4234119;27;20889;-75
2022/12/01 07:31:01;;;;;;;9.60;8.60;;;19.30;99.90;;;;;;4236314;27;20330;-75
2022/12/01 07:33:03;;;;;;;9.75;8.55;;;19.30;99.90;;;;;;4233295;27;20213;-75
2022/12/01 07:35:06;;;;;;;9.45;8.45;;;19.30;99.90;;;;;;4233354;27;20714;-75
2022/12/01 07:37:09;;;;;;;9.80;8.45;;;19.30;99.90;;;;;;4235681;27;20259;-75
2022/12/01 07:39:11;;;;;;;10.20;8.48;;;19.30;99.90;;;;;;4233559;27;20214;-75
2022/12/01 07:41:17;;;;;;;11.38;8.18;;;19.30;99.90;;;;;;4227624;27;20222;-75
2022/12/01 07:43:21;;;;;;;9.63;8.52;;;19.30;99.90;;;;;;4233408;27;20238;-75
2022/12/01 07:45:23;;;;;;;8.93;8.02;;;19.30;99.90;;;;;;4230732;27;20256;-75
2022/12/01 07:47:26;;;;;;;10.27;8.73;;;19.30;99.90;;;;;;4235980;27;20266;-75
2022/12/01 07:49:28;;;;;;;9.90;8.55;;;19.30;99.90;;;;;;4232233;27;20642;-75
2022/12/01 07:51:30;;;;;;;10.80;8.55;;;19.30;99.90;;;;;;4232691;27;20263;-75
2022/12/01 07:53:33;;;;;;;10.38;8.48;;;19.40;99.90;;;;;;4235389;27;20259;-75
2022/12/01 07:55:36;;;;;;;9.35;8.43;;;19.40;99.90;;;;;;4231535;27;20265;-80
2022/12/01 07:57:38;;;;;;;19.23;8.95;;;19.30;99.90;;;;;;4229017;27;20689;-75
2022/12/01 07:59:42;;;;;;;14.18;9.18;;;19.30;99.90;;;;;;4234187;27;20229;-75
2022/12/01 08:01:45;;;;;;;11.70;8.25;;;19.10;99.90;;;;;;4225129;27;20214;-76
2022/12/01 08:03:48;;;;;;;11.70;8.10;;;19.30;99.90;;;;;;4232539;27;20233;-75
2022/12/01 08:05:57;;;;;;;11.02;8.35;;;19.30;99.90;;;;;;4220852;27;20218;-79
2022/12/01 08:07:59;;;;;;;12.25;9.10;;;19.30;99.90;;;;;;4221644;27;20224;-76
2022/12/01 08:10:01;;;;;;;10.20;8.38;;;19.40;99.90;;;;;;4235219;27;20221;-76
2022/12/01 08:12:04;;;;;;;9.52;7.57;;;19.40;99.90;;;;;;4231721;27;20209;-78
2022/12/01 08:14:06;;;;;;;11.40;8.40;;;19.50;99.90;;;;;;4226676;27;20264;-77
2022/12/01 08:16:13;;;;;;;10.48;8.18;;;19.60;99.90;;;;;;4236381;27;20217;-78
2022/12/01 08:18:15;;;;;;;12.73;8.07;;;19.60;99.90;;;;;;4229266;27;20214;-78
2022/12/01 08:20:20;;;;;;;12.43;8.63;;;19.60;99.90;;;;;;4233652;27;20217;-78
2022/12/01 08:22:23;;;;;;;11.82;8.35;;;19.70;99.90;;;;;;4228688;27;20287;-79
2022/12/01 08:24:25;;;;;;;10.38;8.25;;;19.70;99.90;;;;;;4227327;28;20342;-80
2022/12/01 08:26:28;;;;;;;10.35;7.72;;;19.70;99.90;;;;;;4225360;28;20210;-78
2022/12/01 08:28:30;;;;;;;9.13;8.13;;;19.70;99.90;;;;;;4225272;28;20218;-80
2022/12/01 08:30:32;;;;;;;9.73;8.73;;;19.70;99.90;;;;;;4222682;28;20217;-79
2022/12/01 08:32:36;;;;;;;10.10;8.15;;;19.60;99.90;;;;;;4216610;27;20229;-78
2022/12/01 08:34:40;;;;;;;15.15;9.60;;;19.70;99.90;;;;;;4220305;28;20214;-81
2022/12/01 08:36:42;;;;;;;10.45;8.95;;;19.70;99.90;;;;;;4222199;28;20296;-77
2022/12/01 08:38:45;;;;;;;11.70;8.40;;;19.60;99.90;;;;;;4223306;28;20218;-80
2022/12/01 08:40:47;;;;;;;11.35;8.85;;;19.60;99.90;;;;;;4225568;28;20214;-77
2022/12/01 08:42:52;;;;;;;11.95;8.93;;;19.70;99.90;;;;;;4220604;28;20218;-83
2022/12/01 08:44:54;;;;;;;12.30;9.38;;;19.70;99.90;;;;;;4221478;28;20241;-83
2022/12/01 08:46:56;;;;;;;10.35;8.82;;;19.80;99.90;;;;;;4222417;28;20262;-84
2022/12/01 08:49:00;;;;;;;9.50;8.02;;;19.80;99.90;;;;;;4232439;27;20838;-83
2022/12/01 08:51:05;;;;;;;10.73;8.45;;;19.80;99.90;;;;;;4228404;27;20210;-80
2022/12/01 08:53:07;;;;;;;10.60;8.75;;;19.80;99.90;;;;;;4224252;28;20213;-82
2022/12/01 08:55:10;;;;;;;11.95;8.10;;;19.80;99.90;;;;;;4224901;28;20889;-82
2022/12/01 08:57:12;;;;;;;9.30;8.30;;;19.90;99.90;;;;;;4227057;27;20283;-82
2022/12/01 08:59:15;;;;;;;10.90;8.63;;;19.90;99.90;;;;;;4225467;27;20217;-83
2022/12/01 09:01:21;;;;;;;14.10;8.07;;;19.90;99.90;;;;;;4220582;27;20658;-81
2022/12/01 09:03:23;;;;;;;10.93;8.27;;;19.90;99.90;;;;;;4215543;28;20255;-76
2022/12/01 09:05:27;;;;;;;11.05;8.30;;;20.00;99.90;;;;;;4222913;28;20923;-77
2022/12/01 09:07:29;;;;;;;13.68;8.70;;;19.90;99.90;;;;;;4224088;28;20218;-81
2022/12/01 09:09:34;;;;;;;11.55;8.50;;;20.00;99.90;;;;;;4218131;28;20217;-82
2022/12/01 09:11:37;;;;;;;10.85;8.60;;;19.80;99.90;;;;;;4223695;27;20218;-82
2022/12/01 09:13:40;;;;;;;9.15;7.78;;;19.90;99.90;;;;;;4223329;27;20217;-82
2022/12/01 09:15:43;;;;;;;12.73;8.02;;;19.90;99.90;;;;;;4226901;28;20215;-79
2022/12/01 09:17:45;;;;;;;10.30;8.43;;;20.00;99.90;;;;;;4222397;28;20214;-79
2022/12/01 09:19:47;;;;;;;12.95;8.13;;;20.00;99.90;;;;;;4224214;28;20939;-82
2022/12/01 09:21:52;;;;;;;10.90;8.30;;;20.00;99.90;;;;;;4208522;28;20723;-84
2022/12/01 09:23:54;;;;;;;11.52;7.75;;;20.00;99.90;;;;;;4213766;28;20331;-82
2022/12/01 09:26:00;;;;;;;13.15;8.93;;;20.10;99.90;;;;;;4223608;28;20217;-80
2022/12/01 09:28:03;;;;;;;11.60;8.43;;;20.00;99.90;;;;;;4223666;28;20254;-78
2022/12/01 09:30:06;;;;;;;12.75;8.25;;;20.10;99.90;;;;;;4223099;28;20255;-80
2022/12/01 09:32:08;;;;;;;11.23;8.43;;;20.20;99.90;;;;;;4222294;28;20209;-79
2022/12/01 09:34:13;;;;;;;10.50;7.47;;;20.20;99.90;;;;;;4225185;28;20723;-81
2022/12/01 09:36:15;;;;;;;9.65;8.18;;;20.20;99.90;;;;;;4220681;28;20225;-80
2022/12/01 09:38:19;;;;;;;17.60;9.23;;;20.30;99.90;;;;;;4222941;28;20221;-81
2022/12/01 09:40:36;;;;;;;9.18;7.72;;;20.30;99.90;;;;;;4224410;28;20271;-80
2022/12/01 09:42:39;;;;;;;10.55;8.30;;;20.30;99.90;;;;;;4216996;28;20254;-81
2022/12/01 09:44:46;;;;;;;11.75;8.27;;;20.30;99.90;;;;;;4222885;28;20284;-79
2022/12/01 09:46:52;;;;;;;9.90;7.97;;;20.30;99.90;;;;;;4213820;28;20213;-80
2022/12/01 09:48:56;;;;;;;9.40;7.88;;;20.30;99.90;;;;;;4214763;28;20264;-82
2022/12/01 09:51:04;;;;;;;9.35;8.35;;;20.30;99.90;;;;;;4216907;28;20222;-79
2022/12/01 09:53:08;;;;;;;11.63;8.27;;;20.30;99.90;;;;;;4220964;28;20258;-78
2022/12/01 09:55:15;;;;;;;11.63;7.93;;;20.40;99.90;;;;;;4224750;28;20214;-80
2022/12/01 09:57:30;;;;;;;10.57;8.05;;;20.40;99.90;;;;;;4223671;28;20222;-76
2022/12/01 09:59:40;;;;;;;11.43;8.30;;;20.30;99.90;;;;;;4222023;28;20213;-81
2022/12/01 10:01:45;;;;;;;10.32;8.18;;;20.30;99.90;;;;;;4224263;28;20272;-79
2022/12/01 10:03:51;;;;;;;10.30;7.85;;;20.40;99.90;;;;;;4220056;28;20247;-83
2022/12/01 10:05:59;;;;;;;10.55;8.10;;;20.40;99.90;;;;;;4218177;28;20238;-81
2022/12/01 10:08:06;;;;;;;10.93;8.00;;;20.40;99.90;;;;;;4217743;28;20635;-80
2022/12/01 10:10:16;;;;;;;11.82;8.15;;;20.40;99.90;;;;;;4224234;28;20282;-81
2022/12/01 10:12:23;;;;;;;9.93;7.65;;;20.40;99.90;;;;;;4222388;28;20217;-80
2022/12/01 10:14:28;;;;;;;10.15;7.72;;;20.40;99.90;;;;;;4220747;28;20221;-80
2022/12/01 10:16:38;;;;;;;11.20;7.80;;;20.50;99.90;;;;;;4226745;28;20282;-80
2022/12/01 10:18:52;;;;;;;9.13;7.30;;;20.50;99.90;;;;;;4222622;28;20217;-82
2022/12/01 10:21:02;;;;;;;13.48;7.72;;;20.50;99.90;;;;;;4225513;28;20209;-81
2022/12/01 10:23:20;;;;;;;9.13;7.30;;;20.50;99.90;;;;;;4235823;28;20213;-82
2022/12/01 10:25:27;;;;;;;8.93;7.38;;;20.50;99.90;;;;;;4234281;28;20628;-78
2022/12/01 10:27:44;;;;;;;10.25;7.57;;;20.50;99.90;;;;;;4235478;28;20217;-74
2022/12/01 10:29:49;;;;;;;12.25;7.85;;;20.50;99.90;;;;;;4237866;28;20217;-75
2022/12/01 10:31:54;;;;;;;8.40;7.25;;;20.60;99.90;;;;;;4238270;27;20221;-77
2022/12/01 10:34:02;;;;;;;12.30;8.13;;;20.60;99.90;;;;;;4222122;27;20252;-79
2022/12/01 10:36:05;;;;;;;9.60;7.13;;;20.60;99.90;;;;;;4238136;27;20205;-78
2022/12/01 10:38:15;;;;;;;8.38;7.20;;;20.60;99.90;;;;;;4238187;27;20541;-78
2022/12/01 10:40:18;;;;;;;9.02;7.20;;;20.60;99.90;;;;;;4240554;27;20208;-77
2022/12/01 10:42:29;;;;;;;9.10;7.43;;;20.60;99.90;;;;;;4232371;27;20294;-78
2022/12/01 10:44:31;;;;;;;8.30;6.85;;;20.60;99.90;;;;;;4239079;27;20221;-80
2022/12/01 10:46:41;;;;;;;10.25;7.50;;;20.60;99.90;;;;;;4244598;27;20262;-79
2022/12/01 10:48:54;;;;;;;8.43;7.43;;;20.60;99.90;;;;;;4242477;27;20284;-80
2022/12/01 10:51:14;;;;;;;11.73;8.23;;;20.60;99.90;;;;;;4239284;27;20209;-78